sensor_id;sensor_type;location;lat;lon;timestamp;pressure;altitude;pressure_sealevel;temperature;humidity
21824;BME280;11074;48.596;9.238;2023-01-10T00:00:24;97930.88;;;7.44;88.27
21824;BME280;11074;48.596;9.238;2023-01-10T00:02:50;97946.91;;;7.49;88.09
21824;BME280;11074;48.596;9.238;2023-01-10T00:05:17;97949.34;;;7.50;88.22
21824;BME280;11074;48.596;9.238;2023-01-10T00:07:44;97954.69;;;7.50;88.38
21824;BME280;11074;48.596;9.238;2023-01-10T00:10:11;97959.66;;;7.47;88.63
21824;BME280;11074;48.596;9.238;2023-01-10T00:12:36;97964.63;;;7.43;88.90
21824;BME280;11074;48.596;9.238;2023-01-10T00:15:21;97960.84;;;7.39;88.33
21824;BME280;11074;48.596;9.238;2023-01-10T00:17:47;97962.94;;;7.37;88.83
21824;BME280;11074;48.596;9.238;2023-01-10T00:20:13;97973.78;;;7.36;88.50
21824;BME280;11074;48.596;9.238;2023-01-10T00:22:39;97963.31;;;7.29;88.61
21824;BME280;11074;48.596;9.238;2023-01-10T00:25:05;97968.38;;;7.30;88.64
21824;BME280;11074;48.596;9.238;2023-01-10T00:27:31;97981.66;;;7.30;89.15
21824;BME280;11074;48.596;9.238;2023-01-10T00:29:57;97976.34;;;7.30;89.31
21824;BME280;11074;48.596;9.238;2023-01-10T00:32:25;97977.47;;;7.34;89.26
21824;BME280;11074;48.596;9.238;2023-01-10T00:34:51;97979.91;;;7.36;89.46
21824;BME280;11074;48.596;9.238;2023-01-10T00:37:17;97988.47;;;7.38;89.48
21824;BME280;11074;48.596;9.238;2023-01-10T00:39:43;97989.28;;;7.39;89.59
21824;BME280;11074;48.596;9.238;2023-01-10T00:42:10;97994.25;;;7.35;89.03
21824;BME280;11074;48.596;9.238;2023-01-10T00:44:54;98002.03;;;7.25;89.86
21824;BME280;11074;48.596;9.238;2023-01-10T00:47:20;97998.34;;;7.14;89.91
21824;BME280;11074;48.596;9.238;2023-01-10T00:49:46;98010.16;;;7.18;90.84
21824;BME280;11074;48.596;9.238;2023-01-10T00:52:12;98007.13;;;7.15;90.21
21824;BME280;11074;48.596;9.238;2023-01-10T00:54:37;98016.13;;;7.14;90.09
21824;BME280;11074;48.596;9.238;2023-01-10T00:57:03;98024.81;;;7.21;90.45
21824;BME280;11074;48.596;9.238;2023-01-10T00:59:29;98013.59;;;7.19;90.84
21824;BME280;11074;48.596;9.238;2023-01-10T01:01:54;98024.31;;;7.24;90.28
21824;BME280;11074;48.596;9.238;2023-01-10T01:04:21;98028.84;;;7.23;89.93
21824;BME280;11074;48.596;9.238;2023-01-10T01:06:47;98027.47;;;7.21;90.70
21824;BME280;11074;48.596;9.238;2023-01-10T01:09:14;98039.72;;;7.22;89.99
21824;BME280;11074;48.596;9.238;2023-01-10T01:11:40;98048.16;;;7.19;90.05
21824;BME280;11074;48.596;9.238;2023-01-10T01:14:06;98045.06;;;7.10;90.31
21824;BME280;11074;48.596;9.238;2023-01-10T01:16:31;98045.50;;;7.07;90.25
21824;BME280;11074;48.596;9.238;2023-01-10T01:18:57;98054.97;;;7.15;90.84
21824;BME280;11074;48.596;9.238;2023-01-10T01:21:23;98060.41;;;7.08;90.40
21824;BME280;11074;48.596;9.238;2023-01-10T01:23:54;98076.59;;;7.07;90.36
21824;BME280;11074;48.596;9.238;2023-01-10T01:26:23;98085.38;;;7.07;91.18
21824;BME280;11074;48.596;9.238;2023-01-10T01:28:49;98088.16;;;7.12;91.16
21824;BME280;11074;48.596;9.238;2023-01-10T01:31:15;98092.44;;;7.02;90.60
21824;BME280;11074;48.596;9.238;2023-01-10T01:33:41;98102.25;;;7.13;91.03
21824;BME280;11074;48.596;9.238;2023-01-10T01:36:08;98107.66;;;6.95;91.52
21824;BME280;11074;48.596;9.238;2023-01-10T01:38:36;98105.78;;;6.72;90.78
21824;BME280;11074;48.596;9.238;2023-01-10T01:41:02;98118.75;;;6.80;91.60
21824;BME280;11074;48.596;9.238;2023-01-10T01:43:29;98121.16;;;6.82;91.51
21824;BME280;11074;48.596;9.238;2023-01-10T01:46:01;98146.47;;;6.84;91.99
21824;BME280;11074;48.596;9.238;2023-01-10T01:48:38;98139.53;;;6.83;91.59
21824;BME280;11074;48.596;9.238;2023-01-10T01:51:20;98149.19;;;6.66;91.47
21824;BME280;11074;48.596;9.238;2023-01-10T01:53:59;98154.31;;;6.67;92.67
21824;BME280;11074;48.596;9.238;2023-01-10T01:56:44;98164.94;;;6.79;92.07
21824;BME280;11074;48.596;9.238;2023-01-10T01:59:26;98171.06;;;6.80;92.17
21824;BME280;11074;48.596;9.238;2023-01-10T02:02:08;98167.13;;;6.82;91.54
21824;BME280;11074;48.596;9.238;2023-01-10T02:04:46;98164.94;;;6.79;91.96
21824;BME280;11074;48.596;9.238;2023-01-10T02:07:14;98171.31;;;6.78;91.35
21824;BME280;11074;48.596;9.238;2023-01-10T02:09:52;98176.16;;;6.81;91.00
21824;BME280;11074;48.596;9.238;2023-01-10T02:12:20;98178.13;;;6.86;91.49
21824;BME280;11074;48.596;9.238;2023-01-10T02:14:49;98182.06;;;6.83;91.16
21824;BME280;11074;48.596;9.238;2023-01-10T02:17:15;98186.09;;;6.86;90.93
21824;BME280;11074;48.596;9.238;2023-01-10T02:23:13;98193.16;;;6.92;91.49
21824;BME280;11074;48.596;9.238;2023-01-10T02:26:27;98197.09;;;6.89;90.83
21824;BME280;11074;48.596;9.238;2023-01-10T02:37:39;98218.75;;;6.75;91.55
21824;BME280;11074;48.596;9.238;2023-01-10T02:40:13;98229.38;;;6.75;91.33
21824;BME280;11074;48.596;9.238;2023-01-10T02:42:54;98230.69;;;6.84;91.87
21824;BME280;11074;48.596;9.238;2023-01-10T02:45:37;98243.06;;;6.90;91.43
21824;BME280;11074;48.596;9.238;2023-01-10T02:48:05;98239.13;;;6.92;91.62
21824;BME280;11074;48.596;9.238;2023-01-10T02:53:16;98252.16;;;6.82;91.60
21824;BME280;11074;48.596;9.238;2023-01-10T03:01:53;98259.94;;;6.95;91.62
21824;BME280;11074;48.596;9.238;2023-01-10T03:09:55;98271.69;;;6.88;91.67
21824;BME280;11074;48.596;9.238;2023-01-10T03:12:47;98292.66;;;6.96;92.10
21824;BME280;11074;48.596;9.238;2023-01-10T03:15:19;98299.81;;;6.95;91.33
21824;BME280;11074;48.596;9.238;2023-01-10T03:17:54;98306.75;;;6.96;91.73
21824;BME280;11074;48.596;9.238;2023-01-10T03:20:22;98309.41;;;6.96;91.67
21824;BME280;11074;48.596;9.238;2023-01-10T03:22:51;98315.75;;;6.95;92.26
21824;BME280;11074;48.596;9.238;2023-01-10T03:25:25;98316.31;;;6.97;92.02
21824;BME280;11074;48.596;9.238;2023-01-10T03:28:01;98332.88;;;6.99;91.76
21824;BME280;11074;48.596;9.238;2023-01-10T03:30:44;98333.69;;;7.00;92.11
21824;BME280;11074;48.596;9.238;2023-01-10T03:33:16;98343.72;;;6.98;91.47
21824;BME280;11074;48.596;9.238;2023-01-10T03:36:09;98343.50;;;6.99;91.64
21824;BME280;11074;48.596;9.238;2023-01-10T03:38:45;98358.06;;;6.97;92.18
21824;BME280;11074;48.596;9.238;2023-01-10T03:41:58;98350.56;;;7.05;91.90
21824;BME280;11074;48.596;9.238;2023-01-10T03:45:00;98366.50;;;7.05;91.19
21824;BME280;11074;48.596;9.238;2023-01-10T03:47:47;98365.72;;;7.05;91.66
21824;BME280;11074;48.596;9.238;2023-01-10T03:50:22;98365.72;;;7.05;91.47
21824;BME280;11074;48.596;9.238;2023-01-10T03:52:49;98382.13;;;7.02;92.04
21824;BME280;11074;48.596;9.238;2023-01-10T03:55:21;98386.38;;;7.03;91.52
21824;BME280;11074;48.596;9.238;2023-01-10T03:57:47;98383.28;;;7.06;92.02
21824;BME280;11074;48.596;9.238;2023-01-10T04:00:15;98382.69;;;7.04;92.16
21824;BME280;11074;48.596;9.238;2023-01-10T04:02:41;98393.09;;;7.05;91.90
21824;BME280;11074;48.596;9.238;2023-01-10T04:05:07;98398.78;;;7.09;91.49
21824;BME280;11074;48.596;9.238;2023-01-10T04:07:33;98399.22;;;7.06;91.84
21824;BME280;11074;48.596;9.238;2023-01-10T04:09:59;98410.09;;;7.04;92.21
21824;BME280;11074;48.596;9.238;2023-01-10T04:12:25;98424.97;;;7.05;92.09
21824;BME280;11074;48.596;9.238;2023-01-10T04:14:51;98418.25;;;7.03;91.79
21824;BME280;11074;48.596;9.238;2023-01-10T04:17:17;98428.69;;;7.04;91.85
21824;BME280;11074;48.596;9.238;2023-01-10T04:19:44;98426.78;;;6.93;91.95
21824;BME280;11074;48.596;9.238;2023-01-10T04:22:11;98427.06;;;6.85;91.24
21824;BME280;11074;48.596;9.238;2023-01-10T04:24:37;98431.13;;;6.88;91.69
21824;BME280;11074;48.596;9.238;2023-01-10T04:27:04;98426.50;;;6.83;92.19
21824;BME280;11074;48.596;9.238;2023-01-10T04:29:30;98441.63;;;6.83;91.73
21824;BME280;11074;48.596;9.238;2023-01-10T04:31:55;98423.88;;;6.77;91.54
21824;BME280;11074;48.596;9.238;2023-01-10T04:34:21;98434.06;;;6.80;91.88
21824;BME280;11074;48.596;9.238;2023-01-10T04:36:48;98435.34;;;6.77;91.41
21824;BME280;11074;48.596;9.238;2023-01-10T04:39:15;98442.88;;;6.80;91.13
21824;BME280;11074;48.596;9.238;2023-01-10T04:41:40;98443.97;;;6.72;91.55
21824;BME280;11074;48.596;9.238;2023-01-10T04:44:06;98441.16;;;6.67;91.73
21824;BME280;11074;48.596;9.238;2023-01-10T04:46:32;98456.28;;;6.67;91.29
21824;BME280;11074;48.596;9.238;2023-01-10T04:48:58;98461.00;;;6.65;91.30
21824;BME280;11074;48.596;9.238;2023-01-10T04:51:27;98461.88;;;6.59;91.44
21824;BME280;11074;48.596;9.238;2023-01-10T04:53:54;98469.69;;;6.54;91.64
21824;BME280;11074;48.596;9.238;2023-01-10T04:56:21;98479.50;;;6.53;91.62
21824;BME280;11074;48.596;9.238;2023-01-10T04:58:48;98479.34;;;6.48;91.56
21824;BME280;11074;48.596;9.238;2023-01-10T05:01:20;98498.53;;;6.50;92.35
21824;BME280;11074;48.596;9.238;2023-01-10T05:03:51;98508.00;;;6.40;91.25
21824;BME280;11074;48.596;9.238;2023-01-10T05:06:19;98509.22;;;6.44;91.56
21824;BME280;11074;48.596;9.238;2023-01-10T05:08:45;98516.91;;;6.52;91.51
21824;BME280;11074;48.596;9.238;2023-01-10T05:11:11;98526.28;;;6.54;91.27
21824;BME280;11074;48.596;9.238;2023-01-10T05:13:38;98525.25;;;6.55;90.79
21824;BME280;11074;48.596;9.238;2023-01-10T05:16:04;98520.34;;;6.52;91.22
21824;BME280;11074;48.596;9.238;2023-01-10T05:18:30;98529.38;;;6.51;91.53
21824;BME280;11074;48.596;9.238;2023-01-10T05:21:09;98539.75;;;6.53;91.40
21824;BME280;11074;48.596;9.238;2023-01-10T05:23:36;98535.94;;;6.49;91.24
21824;BME280;11074;48.596;9.238;2023-01-10T05:26:21;98552.03;;;6.54;91.36
21824;BME280;11074;48.596;9.238;2023-01-10T05:28:47;98554.84;;;6.59;90.59
21824;BME280;11074;48.596;9.238;2023-01-10T05:31:16;98548.94;;;6.57;90.24
21824;BME280;11074;48.596;9.238;2023-01-10T05:33:49;98558.94;;;6.55;90.47
21824;BME280;11074;48.596;9.238;2023-01-10T05:36:16;98560.75;;;6.61;90.34
21824;BME280;11074;48.596;9.238;2023-01-10T05:38:42;98569.97;;;6.58;90.80
21824;BME280;11074;48.596;9.238;2023-01-10T05:41:08;98565.31;;;6.54;91.31
21824;BME280;11074;48.596;9.238;2023-01-10T05:43:35;98573.63;;;6.57;90.92
21824;BME280;11074;48.596;9.238;2023-01-10T05:46:00;98573.00;;;6.62;90.27
21824;BME280;11074;48.596;9.238;2023-01-10T05:48:26;98582.16;;;6.66;90.89
21824;BME280;11074;48.596;9.238;2023-01-10T05:50:52;98591.09;;;6.71;90.56
21824;BME280;11074;48.596;9.238;2023-01-10T05:53:19;98590.50;;;6.69;91.32
21824;BME280;11074;48.596;9.238;2023-01-10T05:55:56;98594.00;;;6.70;90.29
21824;BME280;11074;48.596;9.238;2023-01-10T05:58:25;98604.50;;;6.58;90.90
21824;BME280;11074;48.596;9.238;2023-01-10T06:00:53;98609.88;;;6.52;91.73
21824;BME280;11074;48.596;9.238;2023-01-10T06:03:19;98607.41;;;6.50;91.71
21824;BME280;11074;48.596;9.238;2023-01-10T06:05:45;98608.41;;;6.49;92.15
21824;BME280;11074;48.596;9.238;2023-01-10T06:08:11;98618.84;;;6.51;92.05
21824;BME280;11074;48.596;9.238;2023-01-10T06:10:37;98614.72;;;6.55;92.35
21824;BME280;11074;48.596;9.238;2023-01-10T06:13:03;98600.00;;;6.59;91.35
21824;BME280;11074;48.596;9.238;2023-01-10T06:15:32;98600.59;;;6.61;91.53
21824;BME280;11074;48.596;9.238;2023-01-10T06:17:58;98617.75;;;6.65;91.35
21824;BME280;11074;48.596;9.238;2023-01-10T06:20:23;98634.91;;;6.62;90.98
21824;BME280;11074;48.596;9.238;2023-01-10T06:22:49;98637.84;;;6.54;91.38
21824;BME280;11074;48.596;9.238;2023-01-10T06:25:15;98635.59;;;6.51;91.67
21824;BME280;11074;48.596;9.238;2023-01-10T06:27:42;98637.59;;;6.56;91.83
21824;BME280;11074;48.596;9.238;2023-01-10T06:30:11;98643.91;;;6.61;91.05
21824;BME280;11074;48.596;9.238;2023-01-10T06:32:38;98640.03;;;6.57;91.55
21824;BME280;11074;48.596;9.238;2023-01-10T06:35:05;98632.88;;;6.58;91.65
21824;BME280;11074;48.596;9.238;2023-01-10T06:37:31;98645.81;;;6.54;91.83
21824;BME280;11074;48.596;9.238;2023-01-10T06:39:57;98656.34;;;6.30;91.98
21824;BME280;11074;48.596;9.238;2023-01-10T06:42:23;98665.31;;;6.35;92.84
21824;BME280;11074;48.596;9.238;2023-01-10T06:44:49;98672.28;;;6.30;92.61
21824;BME280;11074;48.596;9.238;2023-01-10T06:47:14;98681.44;;;6.34;92.91
21824;BME280;11074;48.596;9.238;2023-01-10T06:49:40;98689.22;;;6.35;92.79
21824;BME280;11074;48.596;9.238;2023-01-10T06:52:06;98697.53;;;6.39;92.50
21824;BME280;11074;48.596;9.238;2023-01-10T06:54:31;98690.81;;;6.43;92.21
21824;BME280;11074;48.596;9.238;2023-01-10T06:56:57;98698.94;;;6.48;92.40
21824;BME280;11074;48.596;9.238;2023-01-10T06:59:22;98693.28;;;6.38;91.24
21824;BME280;11074;48.596;9.238;2023-01-10T07:01:48;98704.03;;;6.49;91.30
21824;BME280;11074;48.596;9.238;2023-01-10T07:04:14;98703.66;;;6.46;90.20
21824;BME280;11074;48.596;9.238;2023-01-10T07:06:40;98698.94;;;6.48;90.98
21824;BME280;11074;48.596;9.238;2023-01-10T07:09:06;98706.66;;;6.56;90.99
21824;BME280;11074;48.596;9.238;2023-01-10T07:11:33;98707.47;;;6.56;90.26
21824;BME280;11074;48.596;9.238;2023-01-10T07:14:00;98712.31;;;6.66;90.59
21824;BME280;11074;48.596;9.238;2023-01-10T07:16:26;98711.91;;;6.69;89.46
21824;BME280;11074;48.596;9.238;2023-01-10T07:18:52;98718.63;;;6.71;89.64
21824;BME280;11074;48.596;9.238;2023-01-10T07:21:18;98718.84;;;6.70;90.18
21824;BME280;11074;48.596;9.238;2023-01-10T07:23:48;98727.09;;;6.55;89.77
21824;BME280;11074;48.596;9.238;2023-01-10T07:26:15;98734.47;;;6.53;90.68
21824;BME280;11074;48.596;9.238;2023-01-10T07:28:43;98744.72;;;6.43;91.13
21824;BME280;11074;48.596;9.238;2023-01-10T07:31:10;98742.25;;;6.48;91.17
21824;BME280;11074;48.596;9.238;2023-01-10T07:33:36;98751.03;;;6.49;90.47
21824;BME280;11074;48.596;9.238;2023-01-10T07:36:02;98752.47;;;6.45;90.13
21824;BME280;11074;48.596;9.238;2023-01-10T07:38:28;98751.03;;;6.49;90.04
21824;BME280;11074;48.596;9.238;2023-01-10T07:40:54;98747.38;;;6.43;90.24
21824;BME280;11074;48.596;9.238;2023-01-10T07:43:20;98746.09;;;6.52;90.30
21824;BME280;11074;48.596;9.238;2023-01-10T07:45:45;98741.59;;;6.53;90.61
21824;BME280;11074;48.596;9.238;2023-01-10T07:48:11;98752.63;;;6.56;90.33
21824;BME280;11074;48.596;9.238;2023-01-10T07:50:37;98767.50;;;6.64;89.88
21824;BME280;11074;48.596;9.238;2023-01-10T07:53:06;98762.03;;;6.52;90.36
21824;BME280;11074;48.596;9.238;2023-01-10T07:55:32;98774.31;;;6.53;90.12
21824;BME280;11074;48.596;9.238;2023-01-10T07:58:00;98774.72;;;6.50;90.92
21824;BME280;11074;48.596;9.238;2023-01-10T08:00:26;98792.06;;;6.53;90.84
21824;BME280;11074;48.596;9.238;2023-01-10T08:02:53;98791.25;;;6.52;89.56
21824;BME280;11074;48.596;9.238;2023-01-10T08:05:21;98783.69;;;6.49;90.01
21824;BME280;11074;48.596;9.238;2023-01-10T08:07:47;98793.13;;;6.52;89.90
21824;BME280;11074;48.596;9.238;2023-01-10T08:10:13;98803.91;;;6.57;89.87
21824;BME280;11074;48.596;9.238;2023-01-10T08:12:39;98809.41;;;6.62;90.31
21824;BME280;11074;48.596;9.238;2023-01-10T08:15:05;98807.56;;;6.62;89.33
21824;BME280;11074;48.596;9.238;2023-01-10T08:17:33;98811.66;;;6.58;89.35
21824;BME280;11074;48.596;9.238;2023-01-10T08:19:59;98806.16;;;6.60;89.37
21824;BME280;11074;48.596;9.238;2023-01-10T08:22:25;98807.94;;;6.66;89.72
21824;BME280;11074;48.596;9.238;2023-01-10T08:24:51;98815.91;;;6.66;89.50
21824;BME280;11074;48.596;9.238;2023-01-10T08:27:17;98809.53;;;6.73;89.96
21824;BME280;11074;48.596;9.238;2023-01-10T08:29:43;98824.28;;;6.69;89.33
21824;BME280;11074;48.596;9.238;2023-01-10T08:32:10;98828.78;;;6.76;89.78
21824;BME280;11074;48.596;9.238;2023-01-10T08:34:35;98829.56;;;6.76;89.76
21824;BME280;11074;48.596;9.238;2023-01-10T08:37:01;98838.34;;;6.77;89.30
21824;BME280;11074;48.596;9.238;2023-01-10T08:39:28;98841.19;;;6.82;89.35
21824;BME280;11074;48.596;9.238;2023-01-10T08:41:56;98836.50;;;6.77;89.31
21824;BME280;11074;48.596;9.238;2023-01-10T08:44:21;98852.63;;;6.82;89.42
21824;BME280;11074;48.596;9.238;2023-01-10T08:46:48;98851.03;;;6.81;89.02
21824;BME280;11074;48.596;9.238;2023-01-10T08:49:14;98837.94;;;6.80;89.12
21824;BME280;11074;48.596;9.238;2023-01-10T08:51:40;98845.25;;;6.84;89.41
21824;BME280;11074;48.596;9.238;2023-01-10T08:54:06;98852.63;;;6.82;89.08
21824;BME280;11074;48.596;9.238;2023-01-10T08:56:31;98844.25;;;6.85;88.80
21824;BME280;11074;48.596;9.238;2023-01-10T08:58:57;98848.50;;;6.93;88.08
21824;BME280;11074;48.596;9.238;2023-01-10T09:01:23;98845.84;;;6.93;87.99
21824;BME280;11074;48.596;9.238;2023-01-10T09:03:48;98850.09;;;7.00;88.44
21824;BME280;11074;48.596;9.238;2023-01-10T09:06:14;98853.16;;;7.04;87.62
21824;BME280;11074;48.596;9.238;2023-01-10T09:08:40;98858.22;;;7.12;87.12
21824;BME280;11074;48.596;9.238;2023-01-10T09:11:06;98850.03;;;7.13;87.11
21824;BME280;11074;48.596;9.238;2023-01-10T09:13:32;98859.50;;;7.03;86.77
21824;BME280;11074;48.596;9.238;2023-01-10T09:15:58;98867.66;;;7.08;87.54
21824;BME280;11074;48.596;9.238;2023-01-10T09:18:25;98858.88;;;7.07;87.48
21824;BME280;11074;48.596;9.238;2023-01-10T09:20:51;98872.72;;;7.16;87.47
21824;BME280;11074;48.596;9.238;2023-01-10T09:23:20;98876.00;;;7.18;86.81
21824;BME280;11074;48.596;9.238;2023-01-10T09:25:52;98884.00;;;7.11;86.68
21824;BME280;11074;48.596;9.238;2023-01-10T09:28:20;98888.88;;;7.14;86.92
21824;BME280;11074;48.596;9.238;2023-01-10T09:30:47;98897.94;;;7.07;86.52
21824;BME280;11074;48.596;9.238;2023-01-10T09:33:14;98896.69;;;7.09;87.02
21824;BME280;11074;48.596;9.238;2023-01-10T09:35:41;98901.78;;;7.11;86.72
21824;BME280;11074;48.596;9.238;2023-01-10T09:38:12;98897.88;;;7.13;86.33
21824;BME280;11074;48.596;9.238;2023-01-10T09:41:13;98906.69;;;7.14;86.54
21824;BME280;11074;48.596;9.238;2023-01-10T09:47:19;98913.72;;;6.95;86.85
21824;BME280;11074;48.596;9.238;2023-01-10T09:52:38;98916.97;;;6.97;87.21
21824;BME280;11074;48.596;9.238;2023-01-10T09:55:31;98923.09;;;7.04;86.06
21824;BME280;11074;48.596;9.238;2023-01-10T09:58:03;98927.19;;;7.00;87.18
21824;BME280;11074;48.596;9.238;2023-01-10T10:00:39;98915.72;;;7.06;86.26
21824;BME280;11074;48.596;9.238;2023-01-10T10:06:04;98915.25;;;7.16;86.02
21824;BME280;11074;48.596;9.238;2023-01-10T10:08:30;98919.16;;;7.13;85.26
21824;BME280;11074;48.596;9.238;2023-01-10T10:23:57;98913.06;;;7.44;84.65
21824;BME280;11074;48.596;9.238;2023-01-10T10:30:15;98917.50;;;7.57;83.87
21824;BME280;11074;48.596;9.238;2023-01-10T10:35:36;98910.38;;;7.51;83.13
21824;BME280;11074;48.596;9.238;2023-01-10T10:38:13;98919.16;;;7.51;83.38
21824;BME280;11074;48.596;9.238;2023-01-10T10:40:44;98912.66;;;7.47;83.07
21824;BME280;11074;48.596;9.238;2023-01-10T10:43:20;98918.09;;;7.59;82.50
21824;BME280;11074;48.596;9.238;2023-01-10T10:45:51;98924.03;;;7.61;82.95
21824;BME280;11074;48.596;9.238;2023-01-10T10:48:32;98911.84;;;7.47;82.68
21824;BME280;11074;48.596;9.238;2023-01-10T10:53:32;98909.00;;;7.73;81.36
21824;BME280;11074;48.596;9.238;2023-01-10T10:55:59;98912.09;;;7.70;81.63
21824;BME280;11074;48.596;9.238;2023-01-10T10:58:27;98899.38;;;7.72;80.53
21824;BME280;11074;48.596;9.238;2023-01-10T11:00:55;98904.06;;;7.76;80.15
21824;BME280;11074;48.596;9.238;2023-01-10T11:03:30;98899.94;;;7.80;79.89
21824;BME280;11074;48.596;9.238;2023-01-10T11:05:59;98910.41;;;7.75;79.21
21824;BME280;11074;48.596;9.238;2023-01-10T11:08:27;98910.03;;;7.72;78.47
21824;BME280;11074;48.596;9.238;2023-01-10T11:11:01;98912.47;;;7.73;77.69
21824;BME280;11074;48.596;9.238;2023-01-10T11:15:58;98911.66;;;7.73;77.07
21824;BME280;11074;48.596;9.238;2023-01-10T11:18:27;98921.88;;;7.76;77.74
21824;BME280;11074;48.596;9.238;2023-01-10T11:21:06;98924.88;;;7.86;77.75
21824;BME280;11074;48.596;9.238;2023-01-10T11:23:48;98918.38;;;7.82;77.52
21824;BME280;11074;48.596;9.238;2023-01-10T11:26:35;98922.19;;;7.92;77.03
21824;BME280;11074;48.596;9.238;2023-01-10T11:29:16;98914.66;;;7.83;77.22
21824;BME280;11074;48.596;9.238;2023-01-10T11:31:44;98914.22;;;7.86;77.33
21824;BME280;11074;48.596;9.238;2023-01-10T11:34:30;98919.00;;;7.77;76.92
21824;BME280;11074;48.596;9.238;2023-01-10T11:37:04;98918.25;;;7.64;77.20
21824;BME280;11074;48.596;9.238;2023-01-10T11:39:41;98918.00;;;7.72;77.06
21824;BME280;11074;48.596;9.238;2023-01-10T11:44:48;98922.44;;;7.84;76.50
21824;BME280;11074;48.596;9.238;2023-01-10T11:47:14;98921.53;;;7.66;76.29
21824;BME280;11074;48.596;9.238;2023-01-10T11:49:47;98927.69;;;7.66;76.25
21824;BME280;11074;48.596;9.238;2023-01-10T11:52:28;98917.41;;;7.70;76.05
21824;BME280;11074;48.596;9.238;2023-01-10T11:54:57;98912.81;;;7.83;75.85
21824;BME280;11074;48.596;9.238;2023-01-10T11:57:30;98914.31;;;7.73;75.16
21824;BME280;11074;48.596;9.238;2023-01-10T12:00:05;98905.84;;;7.82;75.89
21824;BME280;11074;48.596;9.238;2023-01-10T12:02:40;98905.81;;;7.89;76.27
21824;BME280;11074;48.596;9.238;2023-01-10T12:05:11;98902.22;;;8.02;75.56
21824;BME280;11074;48.596;9.238;2023-01-10T12:08:03;98907.72;;;8.07;75.34
21824;BME280;11074;48.596;9.238;2023-01-10T12:10:33;98901.53;;;8.13;74.72
21824;BME280;11074;48.596;9.238;2023-01-10T12:13:14;98903.53;;;8.17;74.14
21824;BME280;11074;48.596;9.238;2023-01-10T12:15:40;98906.72;;;8.01;73.58
21824;BME280;11074;48.596;9.238;2023-01-10T12:18:06;98895.88;;;8.03;74.44
21824;BME280;11074;48.596;9.238;2023-01-10T12:20:44;98896.75;;;7.97;75.24
21824;BME280;11074;48.596;9.238;2023-01-10T12:23:17;98898.19;;;8.17;74.54
21824;BME280;11074;48.596;9.238;2023-01-10T12:25:44;98880.72;;;8.28;74.00
21824;BME280;11074;48.596;9.238;2023-01-10T12:28:26;98880.44;;;8.36;73.70
21824;BME280;11074;48.596;9.238;2023-01-10T12:30:58;98878.38;;;8.38;73.80
21824;BME280;11074;48.596;9.238;2023-01-10T12:36:22;98866.38;;;8.47;73.82
21824;BME280;11074;48.596;9.238;2023-01-10T12:39:07;98865.28;;;8.36;72.62
21824;BME280;11074;48.596;9.238;2023-01-10T12:50:40;98851.38;;;8.34;73.43
21824;BME280;11074;48.596;9.238;2023-01-10T12:55:38;98849.81;;;8.45;72.76
21824;BME280;11074;48.596;9.238;2023-01-10T12:58:15;98854.75;;;8.41;73.25
21824;BME280;11074;48.596;9.238;2023-01-10T13:00:48;98848.56;;;8.47;72.74
21824;BME280;11074;48.596;9.238;2023-01-10T13:03:20;98855.16;;;8.45;72.96
21824;BME280;11074;48.596;9.238;2023-01-10T13:05:48;98847.16;;;8.45;72.78
21824;BME280;11074;48.596;9.238;2023-01-10T13:08:23;98855.16;;;8.45;72.40
21824;BME280;11074;48.596;9.238;2023-01-10T13:10:53;98843.75;;;8.38;72.42
21824;BME280;11074;48.596;9.238;2023-01-10T13:15:53;98854.56;;;8.43;72.21
21824;BME280;11074;48.596;9.238;2023-01-10T13:18:26;98842.63;;;8.27;71.30
21824;BME280;11074;48.596;9.238;2023-01-10T13:21:05;98840.56;;;8.29;71.70
21824;BME280;11074;48.596;9.238;2023-01-10T13:23:38;98834.34;;;8.35;70.95
21824;BME280;11074;48.596;9.238;2023-01-10T13:26:11;98848.25;;;8.37;69.84
21824;BME280;11074;48.596;9.238;2023-01-10T13:28:42;98840.28;;;8.37;71.08
21824;BME280;11074;48.596;9.238;2023-01-10T13:31:35;98836.19;;;8.35;70.57
21824;BME280;11074;48.596;9.238;2023-01-10T13:34:11;98847.38;;;8.43;70.49
21824;BME280;11074;48.596;9.238;2023-01-10T13:36:45;98848.63;;;8.41;71.15
21824;BME280;11074;48.596;9.238;2023-01-10T13:39:33;98843.28;;;8.41;70.85
21824;BME280;11074;48.596;9.238;2023-01-10T14:00:44;98839.28;;;9.46;68.57
21824;BME280;11074;48.596;9.238;2023-01-10T14:08:57;98847.00;;;9.65;65.57
21824;BME280;11074;48.596;9.238;2023-01-10T14:11:28;98838.22;;;9.77;64.86
21824;BME280;11074;48.596;9.238;2023-01-10T14:13:59;98848.69;;;9.90;63.06
21824;BME280;11074;48.596;9.238;2023-01-10T14:16:37;98837.38;;;9.76;64.69
21824;BME280;11074;48.596;9.238;2023-01-10T14:19:25;98841.25;;;10.50;63.52
21824;BME280;11074;48.596;9.238;2023-01-10T14:21:55;98846.81;;;11.56;58.08
21824;BME280;11074;48.596;9.238;2023-01-10T14:24:31;98842.25;;;11.85;56.75
21824;BME280;11074;48.596;9.238;2023-01-10T14:27:00;98847.41;;;12.25;55.30
21824;BME280;11074;48.596;9.238;2023-01-10T14:29:32;98833.72;;;11.88;55.78
21824;BME280;11074;48.596;9.238;2023-01-10T14:31:59;98848.66;;;11.11;57.52
21824;BME280;11074;48.596;9.238;2023-01-10T14:34:30;98844.03;;;10.66;59.45
21824;BME280;11074;48.596;9.238;2023-01-10T14:37:35;98854.97;;;10.42;61.02
21824;BME280;11074;48.596;9.238;2023-01-10T14:42:56;98851.94;;;9.50;63.08
21824;BME280;11074;48.596;9.238;2023-01-10T14:45:38;98862.34;;;9.29;64.23
21824;BME280;11074;48.596;9.238;2023-01-10T14:48:46;98855.31;;;9.16;65.79
21824;BME280;11074;48.596;9.238;2023-01-10T14:51:23;98845.25;;;9.00;65.70
21824;BME280;11074;48.596;9.238;2023-01-10T14:54:03;98837.91;;;8.66;63.54
21824;BME280;11074;48.596;9.238;2023-01-10T14:56:40;98829.38;;;8.57;64.60
21824;BME280;11074;48.596;9.238;2023-01-10T14:59:28;98824.19;;;8.44;64.74
21824;BME280;11074;48.596;9.238;2023-01-10T15:02:11;98822.16;;;8.46;66.41
21824;BME280;11074;48.596;9.238;2023-01-10T15:05:16;98819.50;;;8.46;66.15
21824;BME280;11074;48.596;9.238;2023-01-10T15:07:42;98807.44;;;8.43;66.96
21824;BME280;11074;48.596;9.238;2023-01-10T15:10:29;98805.84;;;8.36;67.41
21824;BME280;11074;48.596;9.238;2023-01-10T15:13:02;98812.53;;;8.20;66.80
21824;BME280;11074;48.596;9.238;2023-01-10T15:15:33;98797.19;;;8.22;68.00